Karnak, Illinois
Current Conditions -  °F | °C
As of 7:35 AM on Saturday 25 Oct 2014 (Local Time) from KM30 Reporting Station
Haze Haze  
Wind Chill: 53°   Ceiling: 5000
Heat Index: 53°   Visibility: 3mi
Dew Point: 53°   Wind: 0mph
Humidity: 100%   Direction: NA
Pressure: 30.04"   Gusts: NA
Location:  37.29°N, 88.98°W
Report Text: KM30 251235Z AUTO 00000KT 3SM BR SCT035 OVC050 12/12 A3004 RMK AO2 T01160116
Loading
Personal Weather Stations






























Interactive Weather Map
Tropical Storm Tracking
New forecast layout! Learn more

10-Day Weather Forecast

Advertisements
Track Severe Weather on mobile